createdAt,value
2022-10-18T00:02:56.749Z,59.65
2022-10-18T00:07:59.184Z,60.06
2022-10-18T00:13:01.394Z,59.94
2022-10-18T00:18:03.707Z,59.37
2022-10-18T00:23:05.909Z,60.11
2022-10-18T00:28:08.286Z,60.22
2022-10-18T00:33:10.479Z,59.86
2022-10-18T00:38:12.873Z,59.99
2022-10-18T00:43:17.926Z,60.11
2022-10-18T00:48:21.378Z,59.96
2022-10-18T00:53:24.189Z,59.77
2022-10-18T00:58:26.427Z,59.71
2022-10-18T01:03:28.817Z,59.61
2022-10-18T01:08:51.155Z,60.78
2022-10-18T01:14:08.456Z,60.14
2022-10-18T01:19:57.582Z,60.53
2022-10-18T01:25:21.529Z,60.71
2022-10-18T01:30:37.246Z,60.43
2022-10-18T01:35:45.044Z,60.60
2022-10-18T01:40:51.285Z,60.75
2022-10-18T01:45:56.168Z,61.14
2022-10-18T01:50:58.686Z,61.29
2022-10-18T01:56:27.066Z,62.38
2022-10-18T02:01:34.453Z,62.26
2022-10-18T02:06:42.810Z,62.25
2022-10-18T02:11:46.934Z,61.34
2022-10-18T02:16:57.212Z,61.47
2022-10-18T02:22:01.059Z,61.40
2022-10-18T02:27:03.689Z,61.59
2022-10-18T02:32:27.082Z,61.68
2022-10-18T02:37:35.638Z,62.26
2022-10-18T02:42:48.503Z,61.63
2022-10-18T02:47:50.646Z,62.15
2022-10-18T02:52:52.851Z,62.47
2022-10-18T02:57:55.159Z,62.35
2022-10-18T03:02:57.335Z,62.58
2022-10-18T03:07:59.725Z,62.24
2022-10-18T03:13:02.119Z,62.29
2022-10-18T03:18:04.723Z,62.76
2022-10-18T03:23:07.671Z,62.31
2022-10-18T03:28:10.071Z,62.38
2022-10-18T03:33:12.279Z,62.39
2022-10-18T03:38:14.461Z,62.95
2022-10-18T03:43:16.739Z,62.47
2022-10-18T03:48:18.886Z,62.42
2022-10-18T03:53:21.157Z,62.13
2022-10-18T03:58:24.147Z,62.14
2022-10-18T04:03:26.412Z,62.45
2022-10-18T04:08:28.576Z,62.76
2022-10-18T04:13:30.738Z,62.53
2022-10-18T04:18:33.139Z,62.81
2022-10-18T04:23:37.988Z,62.59
2022-10-18T04:28:41.310Z,63.15
2022-10-18T04:33:43.497Z,63.01
2022-10-18T04:38:45.655Z,63.62
2022-10-18T04:43:48.016Z,63.11
2022-10-18T04:48:50.354Z,62.74
2022-10-18T04:53:52.645Z,62.73
2022-10-18T04:58:54.873Z,62.93
2022-10-18T05:03:57.054Z,63.36
2022-10-18T05:08:59.229Z,62.90
2022-10-18T05:14:01.550Z,63.83
2022-10-18T05:19:06.060Z,63.02
2022-10-18T05:24:08.294Z,63.86
2022-10-18T05:29:10.845Z,63.91
2022-10-18T05:34:13.141Z,63.04
2022-10-18T05:39:15.528Z,62.70
2022-10-18T05:44:17.767Z,63.45
2022-10-18T05:49:20.226Z,62.94
2022-10-18T05:54:22.585Z,63.19
2022-10-18T05:59:25.121Z,62.77
2022-10-18T06:04:27.347Z,62.68
2022-10-18T06:09:31.234Z,62.75
2022-10-18T06:14:33.557Z,62.73
2022-10-18T06:19:35.758Z,62.20
2022-10-18T06:24:38.083Z,61.77
2022-10-18T06:29:41.235Z,61.54
2022-10-18T06:34:43.623Z,61.22
2022-10-18T06:39:45.818Z,60.79
2022-10-18T06:44:48.284Z,60.65
2022-10-18T06:49:50.730Z,60.50
2022-10-18T06:54:53.299Z,59.94
2022-10-18T06:59:55.508Z,59.74
2022-10-18T07:04:57.902Z,59.53
2022-10-18T07:10:00.095Z,59.61
2022-10-18T07:15:06.813Z,59.99
2022-10-18T07:20:11.425Z,60.19
2022-10-18T07:25:13.693Z,60.01
2022-10-18T07:30:16.113Z,59.47
2022-10-18T07:35:18.961Z,59.03
2022-10-18T07:40:21.294Z,59.05
2022-10-18T07:45:23.725Z,58.61
2022-10-18T07:50:25.871Z,58.25
2022-10-18T07:55:28.166Z,57.24
2022-10-18T08:00:30.464Z,57.70
2022-10-18T08:10:40.661Z,55.89
2022-10-18T08:15:43.074Z,55.74
2022-10-18T08:20:46.062Z,55.98
2022-10-18T08:25:48.709Z,55.60
2022-10-18T08:30:50.918Z,54.61
2022-10-18T08:35:57.512Z,54.07
2022-10-18T08:41:02.892Z,54.01
2022-10-18T08:46:05.499Z,53.20
2022-10-18T08:51:20.396Z,52.95
2022-10-18T08:56:24.956Z,52.48
2022-10-18T09:01:57.515Z,52.33
2022-10-18T09:07:24.552Z,51.69
2022-10-18T09:13:07.539Z,51.18
2022-10-18T09:18:20.146Z,49.83
2022-10-18T09:23:23.506Z,49.19
2022-10-18T09:28:53.854Z,49.36
2022-10-18T09:34:12.199Z,47.91
2022-10-18T09:39:23.216Z,47.81
2022-10-18T09:44:30.911Z,47.77
2022-10-18T09:49:57.161Z,47.84
2022-10-18T09:55:09.809Z,47.23
2022-10-18T10:00:21.617Z,46.08
2022-10-18T10:05:23.926Z,46.22
2022-10-18T10:10:28.240Z,45.82
2022-10-18T10:15:35.277Z,45.91
2022-10-18T10:20:47.515Z,44.95
2022-10-18T10:25:52.334Z,45.32
2022-10-18T10:30:54.834Z,42.78
2022-10-18T10:36:02.021Z,43.20
2022-10-18T10:41:04.327Z,42.59
2022-10-18T10:46:16.100Z,41.00
2022-10-18T10:51:39.920Z,41.28
2022-10-18T10:57:01.764Z,40.69
2022-10-18T11:02:32.164Z,41.60
2022-10-18T11:07:36.853Z,41.15
2022-10-18T11:12:44.131Z,41.17
2022-10-18T11:18:01.059Z,41.04
2022-10-18T11:23:07.919Z,40.56
2022-10-18T11:28:10.862Z,40.15
2022-10-18T11:33:29.530Z,40.01
2022-10-18T11:38:46.578Z,39.58
2022-10-18T11:44:02.091Z,39.21
2022-10-18T11:49:35.587Z,39.26
2022-10-18T11:54:49.755Z,38.63
2022-10-18T12:00:03.810Z,38.06
2022-10-18T12:05:24.219Z,37.85
2022-10-18T12:10:45.704Z,37.75
2022-10-18T12:15:54.170Z,37.35
2022-10-18T12:20:58.700Z,37.45
2022-10-18T12:26:07.390Z,37.40
2022-10-18T12:31:35.459Z,37.21
2022-10-18T12:37:11.385Z,36.65
2022-10-18T12:42:25.742Z,36.57
2022-10-18T12:47:30.489Z,36.48
2022-10-18T12:52:37.553Z,36.53
2022-10-18T12:58:04.107Z,36.76
2022-10-18T13:03:18.374Z,36.19
2022-10-18T13:08:34.379Z,36.08
2022-10-18T13:14:20.718Z,35.56
2022-10-18T13:19:34.855Z,35.07
2022-10-18T13:25:19.524Z,34.85
2022-10-18T13:30:33.931Z,34.12
2022-10-18T13:35:57.662Z,34.41
2022-10-18T13:41:21.837Z,34.80
2022-10-18T13:46:33.099Z,34.23
2022-10-18T13:51:53.531Z,34.25
2022-10-18T13:57:37.153Z,34.30
2022-10-18T14:02:51.752Z,33.44
2022-10-18T14:08:10.691Z,33.65
2022-10-18T14:13:22.173Z,33.81
2022-10-18T14:18:35.243Z,33.45
2022-10-18T14:23:43.819Z,33.38
2022-10-18T14:29:01.962Z,32.99
2022-10-18T14:34:04.471Z,32.73
2022-10-18T14:39:08.539Z,32.37
2022-10-18T14:44:19.965Z,32.39
2022-10-18T14:49:22.831Z,32.51
2022-10-18T14:54:34.119Z,33.17
2022-10-18T14:59:52.110Z,33.60
2022-10-18T15:05:05.306Z,35.10
2022-10-18T15:10:15.181Z,35.73
2022-10-18T15:15:24.559Z,36.70
2022-10-18T15:20:32.011Z,37.47
2022-10-18T15:25:36.260Z,38.06
2022-10-18T15:30:44.146Z,38.81
2022-10-18T15:35:46.562Z,39.44
2022-10-18T15:40:48.789Z,39.84
2022-10-18T15:45:53.826Z,40.50
2022-10-18T15:50:57.837Z,40.53
2022-10-18T15:56:35.003Z,40.82
2022-10-18T16:01:43.202Z,41.49
2022-10-18T16:06:45.413Z,41.64
2022-10-18T16:11:54.281Z,42.32
2022-10-18T16:17:05.042Z,42.19
2022-10-18T16:22:07.584Z,42.51
2022-10-18T16:27:10.829Z,42.65
2022-10-18T16:32:13.014Z,42.96
2022-10-18T16:37:15.520Z,43.32
2022-10-18T16:42:17.655Z,43.44
2022-10-18T16:47:20.001Z,43.59
2022-10-18T16:52:22.446Z,43.95
2022-10-18T16:57:24.659Z,43.87
2022-10-18T17:02:26.825Z,44.23
2022-10-18T17:07:29.007Z,44.44
2022-10-18T17:12:31.406Z,44.62
2022-10-18T17:17:34.181Z,45.04
2022-10-18T17:22:36.819Z,45.23
2022-10-18T17:27:39.184Z,45.63
2022-10-18T17:32:45.085Z,45.76
2022-10-18T17:37:52.892Z,45.67
2022-10-18T17:42:55.404Z,45.81
2022-10-18T17:47:57.687Z,45.49
2022-10-18T17:53:00.060Z,45.63
2022-10-18T17:58:02.666Z,45.74
2022-10-18T18:03:05.115Z,45.70
2022-10-18T18:08:07.494Z,45.73
2022-10-18T18:13:09.699Z,46.32
2022-10-18T18:18:11.903Z,46.46
2022-10-18T18:23:14.287Z,47.23
2022-10-18T18:28:16.638Z,47.45
2022-10-18T18:33:18.889Z,47.76
2022-10-18T18:38:21.074Z,48.23
2022-10-18T18:43:23.622Z,49.22
2022-10-18T18:48:27.599Z,49.57
2022-10-18T18:53:30.344Z,49.85
2022-10-18T18:58:33.038Z,50.05
2022-10-18T19:03:36.076Z,50.30
2022-10-18T19:08:40.453Z,50.38
2022-10-18T19:13:43.280Z,50.17
2022-10-18T19:18:58.177Z,50.47
2022-10-18T19:24:01.165Z,50.85
2022-10-18T19:29:13.115Z,51.21
2022-10-18T19:34:16.956Z,51.81
2022-10-18T19:39:24.730Z,53.05
2022-10-18T19:44:30.758Z,52.93
2022-10-18T19:49:33.266Z,52.63
2022-10-18T19:54:35.838Z,52.29
2022-10-18T19:59:38.362Z,52.16
2022-10-18T20:04:40.736Z,51.93
2022-10-18T20:09:42.945Z,51.92
2022-10-18T20:14:45.431Z,52.09
2022-10-18T20:19:49.232Z,52.26
2022-10-18T20:24:52.183Z,52.62
2022-10-18T20:29:54.498Z,52.95
2022-10-18T20:34:56.850Z,53.21
2022-10-18T20:40:00.556Z,53.68
2022-10-18T20:50:06.524Z,54.93
2022-10-18T20:55:08.899Z,54.93
2022-10-18T21:00:12.241Z,55.06
2022-10-18T21:05:16.945Z,55.36
2022-10-18T21:10:19.219Z,55.57
2022-10-18T21:15:21.806Z,55.79
2022-10-18T21:20:23.994Z,55.97
2022-10-18T21:25:26.228Z,56.06
2022-10-18T21:30:28.783Z,56.18
2022-10-18T21:35:36.948Z,56.83
2022-10-18T21:40:44.974Z,57.88
2022-10-18T21:45:47.221Z,57.44
2022-10-18T21:50:49.433Z,57.58
2022-10-18T21:55:51.918Z,57.59
2022-10-18T22:00:54.288Z,57.88
2022-10-18T22:06:13.770Z,57.85
2022-10-18T22:11:17.115Z,58.14
2022-10-18T22:16:19.815Z,58.43
2022-10-18T22:21:22.313Z,58.25
2022-10-18T22:26:28.718Z,58.29
2022-10-18T22:31:33.643Z,58.33
2022-10-18T22:36:36.049Z,58.75
2022-10-18T22:41:38.349Z,58.75
2022-10-18T22:46:42.059Z,59.19
2022-10-18T22:51:44.369Z,59.27
2022-10-18T22:56:46.579Z,60.22
2022-10-18T23:01:48.790Z,59.96
2022-10-18T23:06:51.145Z,59.12
2022-10-18T23:11:53.430Z,59.48
2022-10-18T23:16:55.637Z,58.80
2022-10-18T23:21:57.812Z,58.98
2022-10-18T23:27:00.152Z,58.91
2022-10-18T23:32:02.401Z,58.94
2022-10-18T23:37:04.580Z,59.09
2022-10-18T23:42:06.779Z,59.04
2022-10-18T23:47:09.201Z,59.23
2022-10-18T23:52:11.407Z,59.44
2022-10-18T23:57:13.798Z,59.71
